Allise P — A8JE7 — position and weather

sailwx.info

Track history (hours):
 
Tides and Currents Weather Stations Pressure Air Temp Water Temp Dewpoint Dewpoint Depression Visibility Wind Speed Wind Dir Waves Ship Positions

Allise P

Last reported at 2018-Apr-25 14:00 UTC. Time now 2018-Apr-25 14:21 UTC.
Position N 35°06' E 129°04'.

Length 294 m; draft 10.1 m.

Type: Cargo ship. MMSI: 636091079.

Date/timePositionNaut miles runAvg speedWind from/ knotsBaromVisibWave heightAir tempDewpointWater temp
2018-Apr-25 14:00N 35°06' E 129°04'0 0.0
2018-Apr-25 13:30N 35°06' E 129°04'0 0.0
2018-Apr-25 13:00N 35°06' E 129°04'0 0.0
2018-Apr-25 12:30N 35°06' E 129°04'0 0.0
2018-Apr-25 12:00N 35°06' E 129°04'0 0.0
2018-Apr-25 11:30N 35°06' E 129°04'0 0.0
2018-Apr-25 11:00N 35°06' E 129°04'0 0.0
2018-Apr-25 10:30N 35°06' E 129°04'0 0.0
2018-Apr-25 10:00N 35°06' E 129°04'0 0.0
2018-Apr-25 09:30N 35°06' E 129°04'0 0.0
2018-Apr-25 09:00N 35°06' E 129°04'0 0.0
2018-Apr-25 08:30N 35°06' E 129°04'0 0.0
2018-Apr-25 08:00N 35°06' E 129°04'0 0.0
2018-Apr-25 07:30N 35°06' E 129°04'0 0.0
2018-Apr-25 07:00N 35°06' E 129°04'0 0.0
2018-Apr-25 06:30N 35°06' E 129°04'0 0.0
2018-Apr-25 06:00N 35°06' E 129°04'0 0.1
2018-Apr-25 05:30N 35°06' E 129°04'0 0.1
2018-Apr-25 05:00N 35°06' E 129°04'0 0.1
2018-Apr-25 04:31N 35°06' E 129°04'2 4.9
2018-Apr-25 04:01N 35°05' E 129°07'4 7.9
2018-Apr-25 03:30N 35°03' E 129°11'4510.2
2018-Apr-24 23:08N 34°34' E 129°52'410.7
2018-Apr-24 22:45N 34°31' E 129°56'310.6
2018-Apr-24 22:30N 34°30' E 129°58'510.3
2018-Apr-24 22:00N 34°27' E 130°04'510.4
2018-Apr-24 21:30N 34°23' E 130°08'510.3
2018-Apr-24 21:00N 34°20' E 130°13'510.4
2018-Apr-24 20:30N 34°17' E 130°18'510.4
2018-Apr-24 20:00N 34°14' E 130°24'510.5
2018-Apr-24 19:30N 34°12' E 130°30'510.4
2018-Apr-24 19:00N 34°09' E 130°35'510.6
2018-Apr-24 18:30N 34°06' E 130°40'510.4
2018-Apr-24 18:00N 34°04' E 130°45'510.6
2018-Apr-24 17:30N 34°01' E 130°51'4 7.6
2018-Apr-24 17:00N 33°57' E 130°52'4 7.2
2018-Apr-24 16:31N 33°56' E 130°56'510.0
2018-Apr-24 16:00N 33°59' E 131°01'611.5
2018-Apr-24 15:31N 33°55' E 131°06'5 9.6
2018-Apr-24 15:01N 33°53' E 131°11'4 8.7
2018-Apr-24 14:31N 33°51' E 131°16'5 9.0
2018-Apr-24 14:00N 33°50' E 131°21'5 9.1
2018-Apr-24 13:30N 33°49' E 131°27'5 9.1
2018-Apr-24 13:00N 33°48' E 131°32'5 9.2
2018-Apr-24 12:30N 33°48' E 131°38'5 9.0
2018-Apr-24 12:00N 33°46' E 131°43'510.1
2018-Apr-24 11:30N 33°42' E 131°47'5 9.9
2018-Apr-24 11:00N 33°38' E 131°50'5 9.6
2018-Apr-24 10:30N 33°34' E 131°52'510.0
2018-Apr-24 10:00N 33°29' E 131°54'5 9.8
2018-Apr-24 09:30N 33°25' E 131°57'510.5
2018-Apr-24 09:00N 33°20' E 131°59'5 9.7
2018-Apr-24 08:26N 33°16' E 132°04'410.4
2018-Apr-24 08:00N 33°12' E 132°07'510.6
2018-Apr-24 07:30N 33°08' E 132°10'129 9.9
2018-Apr-23 18:28N 33°37' E 134°40'613.5
2018-Apr-23 18:00N 33°42' E 134°45'713.1
2018-Apr-23 17:30N 33°47' E 134°50'612.3
2018-Apr-23 17:00N 33°52' E 134°54'612.6
2018-Apr-23 16:30N 33°58' E 134°55'611.9
2018-Apr-23 16:00N 34°04' E 134°57'612.5
2018-Apr-23 15:30N 34°10' E 134°58'5 9.8
2018-Apr-23 15:01N 34°15' E 134°58'816.4
2018-Apr-23 14:31N 34°23' E 135°02'1020.9
2018-Apr-23 14:00N 34°30' E 135°11'1019.9
2018-Apr-23 13:30N 34°37' E 135°20'611.3
2018-Apr-23 13:00N 34°38' E 135°27'0 0.2
2018-Apr-23 12:30N 34°38' E 135°26'0 0.0
2018-Apr-23 12:00N 34°38' E 135°26'0 0.0
2018-Apr-23 11:30N 34°38' E 135°26'0 0.0
2018-Apr-23 11:00N 34°38' E 135°26'0 0.0
2018-Apr-23 10:30N 34°38' E 135°26'0 0.0
2018-Apr-23 10:00N 34°38' E 135°26'0 0.7
2018-Apr-23 09:30N 34°39' E 135°26'4 8.1
2018-Apr-23 09:00N 34°37' E 135°22'612.6
2018-Apr-23 08:30N 34°33' E 135°16'713.4
2018-Apr-23 08:00N 34°28' E 135°11'917.4
2018-Apr-23 07:30N 34°21' E 135°04'917.9
2018-Apr-23 07:00N 34°13' E 134°59'713.5
2018-Apr-23 06:30N 34°07' E 135°00'713.2
2018-Apr-23 06:00N 34°00' E 134°60'612.9
2018-Apr-23 05:30N 33°54' E 134°60'12911.3
2018-Apr-22 18:10N 34°01' E 137°35'213.7
2018-Apr-22 18:00N 34°01' E 137°37'713.4
2018-Apr-22 17:30N 34°04' E 137°45'713.6
2018-Apr-22 17:00N 34°07' E 137°52'713.6
2018-Apr-22 16:30N 34°10' E 137°60'713.6
2018-Apr-22 15:58N 34°13' E 138°08'3713.8
2018-Apr-22 13:16N 34°29' E 138°49'413.5
2018-Apr-22 12:58N 34°30' E 138°53'813.5
2018-Apr-22 12:23N 34°36' E 139°00'615.0
2018-Apr-22 12:00N 34°40' E 139°05'714.1
2018-Apr-22 11:30N 34°45' E 139°11'714.0
2018-Apr-22 11:00N 34°50' E 139°17'613.0
2018-Apr-22 10:30N 34°54' E 139°23'611.3
2018-Apr-22 10:00N 34°56' E 139°30'612.8
2018-Apr-22 09:30N 34°60' E 139°36'713.5
2018-Apr-22 09:00N 35°05' E 139°41'712.9
2018-Apr-22 08:30N 35°10' E 139°45'510.2
2018-Apr-22 08:00N 35°15' E 139°46'612.4
2018-Apr-22 07:30N 35°21' E 139°42'713.3
2018-Apr-22 07:01N 35°27' E 139°43'1 2.2
2018-Apr-22 06:30N 35°28' E 139°42'0 0.0
2018-Apr-22 06:00N 35°28' E 139°42'0 0.0
2018-Apr-22 05:30N 35°28' E 139°42'0 0.0
2018-Apr-22 05:00N 35°28' E 139°42'0 0.0
2018-Apr-22 04:30N 35°28' E 139°42'0 0.0
2018-Apr-22 04:00N 35°28' E 139°42'0 0.0
2018-Apr-22 03:30N 35°28' E 139°42'0 0.0
2018-Apr-22 03:00N 35°28' E 139°42'0 0.0
2018-Apr-22 02:30N 35°28' E 139°42'0 0.0
2018-Apr-22 01:57N 35°28' E 139°42'0 0.0
2018-Apr-22 01:30N 35°28' E 139°42'0 0.0
2018-Apr-22 01:00N 35°28' E 139°42'0 0.0
2018-Apr-22 00:30N 35°28' E 139°42'0 0.0
2018-Apr-22 00:00N 35°28' E 139°42'0 0.0
2018-Apr-21 23:30N 35°28' E 139°42'0 0.0
2018-Apr-21 23:00N 35°28' E 139°42'0 0.5
2018-Apr-21 22:30N 35°28' E 139°42'2 4.2
2018-Apr-21 22:00N 35°27' E 139°44'4 7.3
2018-Apr-21 21:30N 35°23' E 139°46'611.2
2018-Apr-21 21:00N 35°18' E 139°45'612.1
2018-Apr-21 20:30N 35°12' E 139°47'5 9.9
2018-Apr-21 20:00N 35°07' E 139°45'611.6
2018-Apr-21 19:30N 35°02' E 139°42'713.4
2018-Apr-21 19:00N 34°55' E 139°42'714.0
2018-Apr-21 18:30N 34°49' E 139°45'713.3
2018-Apr-21 17:59N 34°42' E 139°48'613.3
2018-Apr-21 17:30N 34°37' E 139°51'713.2
2018-Apr-21 17:00N 34°31' E 139°54'712.9
2018-Apr-21 16:29N 34°24' E 139°57'  
Track history (hours):
 
Tides and Currents Weather Stations Pressure Air Temp Water Temp Dewpoint Dewpoint Depression Visibility Wind Speed Wind Dir Waves Ship Positions

Allise P

Last reported at 2018-Apr-25 14:00 UTC. Time now 2018-Apr-25 14:21 UTC.
Position N 35°06' E 129°04'.

Length 294 m; draft 10.1 m.

Type: Cargo ship. MMSI: 636091079.

Date/timePositionNaut miles runAvg speedWind from/ knotsBaromVisibWave heightAir tempDewpointWater temp
2018-Apr-25 14:00N 35°06' E 129°04'0 0.0
2018-Apr-25 13:30N 35°06' E 129°04'0 0.0
2018-Apr-25 13:00N 35°06' E 129°04'0 0.0
2018-Apr-25 12:30N 35°06' E 129°04'0 0.0
2018-Apr-25 12:00N 35°06' E 129°04'0 0.0
2018-Apr-25 11:30N 35°06' E 129°04'0 0.0
2018-Apr-25 11:00N 35°06' E 129°04'0 0.0
2018-Apr-25 10:30N 35°06' E 129°04'0 0.0
2018-Apr-25 10:00N 35°06' E 129°04'0 0.0
2018-Apr-25 09:30N 35°06' E 129°04'0 0.0
2018-Apr-25 09:00N 35°06' E 129°04'0 0.0
2018-Apr-25 08:30N 35°06' E 129°04'0 0.0
2018-Apr-25 08:00N 35°06' E 129°04'0 0.0
2018-Apr-25 07:30N 35°06' E 129°04'0 0.0
2018-Apr-25 07:00N 35°06' E 129°04'0 0.0
2018-Apr-25 06:30N 35°06' E 129°04'0 0.0
2018-Apr-25 06:00N 35°06' E 129°04'0 0.1
2018-Apr-25 05:30N 35°06' E 129°04'0 0.1
2018-Apr-25 05:00N 35°06' E 129°04'0 0.1
2018-Apr-25 04:31N 35°06' E 129°04'2 4.9
2018-Apr-25 04:01N 35°05' E 129°07'4 7.9
2018-Apr-25 03:30N 35°03' E 129°11'4510.2
2018-Apr-24 23:08N 34°34' E 129°52'410.7
2018-Apr-24 22:45N 34°31' E 129°56'310.6
2018-Apr-24 22:30N 34°30' E 129°58'510.3
2018-Apr-24 22:00N 34°27' E 130°04'510.4
2018-Apr-24 21:30N 34°23' E 130°08'510.3
2018-Apr-24 21:00N 34°20' E 130°13'510.4
2018-Apr-24 20:30N 34°17' E 130°18'510.4
2018-Apr-24 20:00N 34°14' E 130°24'510.5
2018-Apr-24 19:30N 34°12' E 130°30'510.4
2018-Apr-24 19:00N 34°09' E 130°35'510.6
2018-Apr-24 18:30N 34°06' E 130°40'510.4
2018-Apr-24 18:00N 34°04' E 130°45'510.6
2018-Apr-24 17:30N 34°01' E 130°51'4 7.6
2018-Apr-24 17:00N 33°57' E 130°52'4 7.2
2018-Apr-24 16:31N 33°56' E 130°56'510.0
2018-Apr-24 16:00N 33°59' E 131°01'611.5
2018-Apr-24 15:31N 33°55' E 131°06'5 9.6
2018-Apr-24 15:01N 33°53' E 131°11'4 8.7
2018-Apr-24 14:31N 33°51' E 131°16'5 9.0
2018-Apr-24 14:00N 33°50' E 131°21'5 9.1
2018-Apr-24 13:30N 33°49' E 131°27'5 9.1
2018-Apr-24 13:00N 33°48' E 131°32'5 9.2
2018-Apr-24 12:30N 33°48' E 131°38'5 9.0
2018-Apr-24 12:00N 33°46' E 131°43'510.1
2018-Apr-24 11:30N 33°42' E 131°47'5 9.9
2018-Apr-24 11:00N 33°38' E 131°50'5 9.6
2018-Apr-24 10:30N 33°34' E 131°52'510.0
2018-Apr-24 10:00N 33°29' E 131°54'5 9.8
2018-Apr-24 09:30N 33°25' E 131°57'510.5
2018-Apr-24 09:00N 33°20' E 131°59'5 9.7
2018-Apr-24 08:26N 33°16' E 132°04'410.4
2018-Apr-24 08:00N 33°12' E 132°07'510.6
2018-Apr-24 07:30N 33°08' E 132°10'129 9.9
2018-Apr-23 18:28N 33°37' E 134°40'613.5
2018-Apr-23 18:00N 33°42' E 134°45'713.1
2018-Apr-23 17:30N 33°47' E 134°50'612.3
2018-Apr-23 17:00N 33°52' E 134°54'612.6
2018-Apr-23 16:30N 33°58' E 134°55'611.9
2018-Apr-23 16:00N 34°04' E 134°57'612.5
2018-Apr-23 15:30N 34°10' E 134°58'5 9.8
2018-Apr-23 15:01N 34°15' E 134°58'816.4
2018-Apr-23 14:31N 34°23' E 135°02'1020.9
2018-Apr-23 14:00N 34°30' E 135°11'1019.9
2018-Apr-23 13:30N 34°37' E 135°20'611.3
2018-Apr-23 13:00N 34°38' E 135°27'0 0.2
2018-Apr-23 12:30N 34°38' E 135°26'0 0.0
2018-Apr-23 12:00N 34°38' E 135°26'0 0.0
2018-Apr-23 11:30N 34°38' E 135°26'0 0.0
2018-Apr-23 11:00N 34°38' E 135°26'0 0.0
2018-Apr-23 10:30N 34°38' E 135°26'0 0.0
2018-Apr-23 10:00N 34°38' E 135°26'0 0.7
2018-Apr-23 09:30N 34°39' E 135°26'4 8.1
2018-Apr-23 09:00N 34°37' E 135°22'612.6
2018-Apr-23 08:30N 34°33' E 135°16'713.4
2018-Apr-23 08:00N 34°28' E 135°11'917.4
2018-Apr-23 07:30N 34°21' E 135°04'917.9
2018-Apr-23 07:00N 34°13' E 134°59'713.5
2018-Apr-23 06:30N 34°07' E 135°00'713.2
2018-Apr-23 06:00N 34°00' E 134°60'612.9
2018-Apr-23 05:30N 33°54' E 134°60'12911.3
2018-Apr-22 18:10N 34°01' E 137°35'213.7
2018-Apr-22 18:00N 34°01' E 137°37'713.4
2018-Apr-22 17:30N 34°04' E 137°45'713.6
2018-Apr-22 17:00N 34°07' E 137°52'713.6
2018-Apr-22 16:30N 34°10' E 137°60'713.6
2018-Apr-22 15:58N 34°13' E 138°08'3713.8
2018-Apr-22 13:16N 34°29' E 138°49'413.5
2018-Apr-22 12:58N 34°30' E 138°53'813.5
2018-Apr-22 12:23N 34°36' E 139°00'615.0
2018-Apr-22 12:00N 34°40' E 139°05'714.1
2018-Apr-22 11:30N 34°45' E 139°11'714.0
2018-Apr-22 11:00N 34°50' E 139°17'613.0
2018-Apr-22 10:30N 34°54' E 139°23'611.3
2018-Apr-22 10:00N 34°56' E 139°30'612.8
2018-Apr-22 09:30N 34°60' E 139°36'713.5
2018-Apr-22 09:00N 35°05' E 139°41'712.9
2018-Apr-22 08:30N 35°10' E 139°45'510.2
2018-Apr-22 08:00N 35°15' E 139°46'612.4
2018-Apr-22 07:30N 35°21' E 139°42'713.3
2018-Apr-22 07:01N 35°27' E 139°43'1 2.2
2018-Apr-22 06:30N 35°28' E 139°42'0 0.0
2018-Apr-22 06:00N 35°28' E 139°42'0 0.0
2018-Apr-22 05:30N 35°28' E 139°42'0 0.0
2018-Apr-22 05:00N 35°28' E 139°42'0 0.0
2018-Apr-22 04:30N 35°28' E 139°42'0 0.0
2018-Apr-22 04:00N 35°28' E 139°42'0 0.0
2018-Apr-22 03:30N 35°28' E 139°42'0 0.0
2018-Apr-22 03:00N 35°28' E 139°42'0 0.0
2018-Apr-22 02:30N 35°28' E 139°42'0 0.0
2018-Apr-22 01:57N 35°28' E 139°42'0 0.0
2018-Apr-22 01:30N 35°28' E 139°42'0 0.0
2018-Apr-22 01:00N 35°28' E 139°42'0 0.0
2018-Apr-22 00:30N 35°28' E 139°42'0 0.0
2018-Apr-22 00:00N 35°28' E 139°42'0 0.0
2018-Apr-21 23:30N 35°28' E 139°42'0 0.0
2018-Apr-21 23:00N 35°28' E 139°42'0 0.5
2018-Apr-21 22:30N 35°28' E 139°42'2 4.2
2018-Apr-21 22:00N 35°27' E 139°44'4 7.3
2018-Apr-21 21:30N 35°23' E 139°46'611.2
2018-Apr-21 21:00N 35°18' E 139°45'612.1
2018-Apr-21 20:30N 35°12' E 139°47'5 9.9
2018-Apr-21 20:00N 35°07' E 139°45'611.6
2018-Apr-21 19:30N 35°02' E 139°42'713.4
2018-Apr-21 19:00N 34°55' E 139°42'714.0
2018-Apr-21 18:30N 34°49' E 139°45'713.3
2018-Apr-21 17:59N 34°42' E 139°48'613.3
2018-Apr-21 17:30N 34°37' E 139°51'713.2
2018-Apr-21 17:00N 34°31' E 139°54'712.9
2018-Apr-21 16:29N 34°24' E 139°57'  

Dump ship's entire track history